Winnemucca Municipal Airport Winnemucca US
ICAO: KWMC
IATA: WMC
Category: Medium
Scheduled Services: No

Elevation: 4308 ft
TransAlt. 18000 ft.

Airport Communications:
ASOS:120.175
SALT LAKE CNTR:132.25
RENO RDO:122.3
CTAF/UNICOM:122.8

KWMC Zoom In..

If you have problems with the map follow the link
https://www.worldairports.se/pages/airport.php?
ICAO=KWMC

Runways:

(A) RW 02 length 4800 ft width 75 ft
---- / hdg 24

(B) RW 14 length 7000 ft width 100 ft
---- / hdg 144

(C) RW 20 length 4800 ft width 75 ft
---- / hdg 204

(D) RW 32 length 7000 ft width 100 ft
---- / hdg 324

Location; KWMC
Day. 23 / Time. 22.56 Zulu
* Altimeter: 30.17
* Temperature: 13° c. 55.4°f.
* Wind from: 000° Speed 00 kn.
Dewpoint: -01° c.
Visibility: 10 Statute Miles.
Clouds: Few 7000 ft.

KWMC 232256Z AUTO 00000KT 10SM FEW070 13/M01 A3017 RMK AO2 SLP217 T01331006


Wind - Calm.

 
 
jpsmedia worldairports.se 2020   terms of use